Time,TemperatureF,DewpointF,PressureIn,WindDirection,WindDirectionDegrees,WindSpeedMPH,WindSpeedGustMPH,Humidity,HourlyPrecipIn,Conditions,Clouds,dailyrainin,SoftwareType,DateUTC
2013-06-14 00:14:00,73.1,67.0,29.81,NW,317,1.0,5.0,80,0.00,,,0.00,weatherlink.com 1.10,2013-06-14 04:14:00,
2013-06-14 00:29:00,72.9,66.0,29.82,NW,319,0.0,2.0,80,0.00,,,0.00,weatherlink.com 1.10,2013-06-14 04:29:00,
2013-06-14 00:44:00,73.0,66.0,29.83,NW,307,1.0,7.0,79,0.00,,,0.00,weatherlink.com 1.10,2013-06-14 04:44:00,
2013-06-14 00:59:00,73.0,67.0,29.84,WNW,301,0.0,1.0,81,0.00,,,0.00,weatherlink.com 1.10,2013-06-14 04:59:00,
2013-06-14 01:14:00,-999.0,-99.9,29.84,North,-999,-999.0,-999.0,-999,0.00,,,0.00,weatherlink.com 1.10,2013-06-14 05:14:00,
2013-06-14 01:29:00,72.1,-99.9,29.83,WNW,301,0.0,0.0,-999,0.00,,,0.00,weatherlink.com 1.10,2013-06-14 05:29:00,
2013-06-14 01:44:00,71.7,66.0,29.84,WNW,301,0.0,2.0,82,0.00,,,0.00,weatherlink.com 1.10,2013-06-14 05:44:00,
2013-06-14 02:00:00,71.3,66.0,29.84,WNW,301,0.0,1.0,82,0.00,,,0.00,weatherlink.com 1.10,2013-06-14 06:00:00,
2013-06-14 02:15:00,70.3,65.0,29.83,WNW,301,0.0,0.0,83,0.00,,,0.00,weatherlink.com 1.10,2013-06-14 06:15:00,
2013-06-14 02:30:00,69.3,65.0,29.84,WNW,301,0.0,0.0,85,0.00,,,0.00,weatherlink.com 1.10,2013-06-14 06:30:00,
2013-06-14 02:45:00,68.4,64.0,29.84,WNW,301,0.0,0.0,87,0.00,,,0.00,weatherlink.com 1.10,2013-06-14 06:45:00,
2013-06-14 03:00:00,67.6,64.0,29.83,WNW,301,0.0,0.0,88,0.00,,,0.00,weatherlink.com 1.10,2013-06-14 07:00:00,
2013-06-14 03:15:00,67.1,63.0,29.83,WNW,300,0.0,0.0,87,0.00,,,0.00,weatherlink.com 1.10,2013-06-14 07:15:00,
2013-06-14 03:30:00,66.8,63.0,29.83,WNW,301,0.0,0.0,86,0.00,,,0.00,weatherlink.com 1.10,2013-06-14 07:30:00,
2013-06-14 03:45:00,66.4,62.0,29.83,WNW,300,0.0,0.0,85,0.00,,,0.00,weatherlink.com 1.10,2013-06-14 07:45:00,
2013-06-14 04:00:00,65.6,62.0,29.83,WNW,301,0.0,0.0,87,0.00,,,0.00,weatherlink.com 1.10,2013-06-14 08:00:00,
2013-06-14 04:15:00,64.6,61.0,29.83,WNW,301,0.0,0.0,88,0.00,,,0.00,weatherlink.com 1.10,2013-06-14 08:15:00,
2013-06-14 04:30:00,63.7,61.0,29.84,WNW,300,0.0,0.0,89,0.00,,,0.00,weatherlink.com 1.10,2013-06-14 08:30:00,
2013-06-14 04:45:00,63.2,61.0,29.84,WNW,300,0.0,0.0,91,0.00,,,0.00,weatherlink.com 1.10,2013-06-14 08:45:00,
2013-06-14 05:15:00,62.2,60.0,29.84,WNW,301,0.0,0.0,91,0.00,,,0.00,weatherlink.com 1.10,2013-06-14 09:15:00,
2013-06-14 05:45:00,61.3,59.0,29.85,WNW,300,0.0,0.0,93,0.00,,,0.00,weatherlink.com 1.10,2013-06-14 09:45:00,
2013-06-14 06:15:00,60.6,59.0,29.86,South,179,0.0,0.0,93,0.00,,,0.00,weatherlink.com 1.10,2013-06-14 10:15:00,
2013-06-14 06:30:00,60.4,58.0,29.87,South,179,0.0,0.0,93,0.00,,,0.00,weatherlink.com 1.10,2013-06-14 10:30:00,
2013-06-14 06:45:00,60.2,58.0,29.88,South,179,0.0,0.0,93,0.00,,,0.00,weatherlink.com 1.10,2013-06-14 10:45:00,
2013-06-14 07:00:00,60.2,58.0,29.88,South,179,0.0,0.0,93,0.00,,,0.00,weatherlink.com 1.10,2013-06-14 11:00:00,
2013-06-14 07:15:00,60.3,58.0,29.88,South,179,0.0,0.0,93,0.00,,,0.00,weatherlink.com 1.10,2013-06-14 11:15:00,
2013-06-14 07:30:00,60.6,59.0,29.89,South,179,0.0,0.0,93,0.00,,,0.00,weatherlink.com 1.10,2013-06-14 11:30:00,
2013-06-14 08:00:00,62.3,60.0,29.89,South,179,0.0,0.0,93,0.00,,,0.00,weatherlink.com 1.10,2013-06-14 12:00:00,
2013-06-14 08:15:00,63.5,61.0,29.89,South,179,0.0,0.0,92,0.00,,,0.00,weatherlink.com 1.10,2013-06-14 12:15:00,
2013-06-14 08:30:00,66.2,63.0,29.90,South,180,0.0,1.0,88,0.00,,,0.00,weatherlink.com 1.10,2013-06-14 12:30:00,
2013-06-14 08:45:00,70.0,62.0,29.90,North,355,2.0,3.0,75,0.00,,,0.00,weatherlink.com 1.10,2013-06-14 12:45:00,
2013-06-14 09:00:00,72.0,63.0,29.91,West,277,3.0,4.0,72,0.00,,,0.00,weatherlink.com 1.10,2013-06-14 13:00:00,
2013-06-14 09:15:00,73.2,63.0,29.91,West,275,1.0,3.0,70,0.00,,,0.00,weatherlink.com 1.10,2013-06-14 13:15:00,
2013-06-14 09:31:00,73.7,63.0,29.92,North,11,1.0,8.0,69,0.00,,,0.00,weatherlink.com 1.10,2013-06-14 13:31:00,
2013-06-14 09:46:00,75.1,63.0,29.91,NW,323,2.0,5.0,67,0.00,,,0.00,weatherlink.com 1.10,2013-06-14 13:46:00,
2013-06-14 10:01:00,76.0,63.0,29.91,SSW,203,0.0,6.0,64,0.00,,,0.00,weatherlink.com 1.10,2013-06-14 14:01:00,
2013-06-14 10:16:00,76.7,64.0,29.91,ESE,105,2.0,7.0,64,0.00,,,0.00,weatherlink.com 1.10,2013-06-14 14:16:00,
2013-06-14 10:31:00,76.7,64.0,29.91,WNW,298,1.0,8.0,64,0.00,,,0.00,weatherlink.com 1.10,2013-06-14 14:31:00,
2013-06-14 10:46:00,77.6,63.0,29.91,NW,307,0.0,7.0,62,0.00,,,0.00,weatherlink.com 1.10,2013-06-14 14:46:00,
2013-06-14 11:16:00,78.1,62.0,29.91,East,98,4.0,9.0,58,0.00,,,0.00,weatherlink.com 1.10,2013-06-14 15:16:00,
2013-06-14 11:31:00,78.9,61.0,29.91,SSW,197,3.0,7.0,54,0.00,,,0.00,weatherlink.com 1.10,2013-06-14 15:31:00,
2013-06-14 11:46:00,79.4,61.0,29.91,ENE,69,0.0,9.0,53,0.00,,,0.00,weatherlink.com 1.10,2013-06-14 15:46:00,
2013-06-14 12:01:00,80.0,61.0,29.91,ESE,116,3.0,10.0,53,0.00,,,0.00,weatherlink.com 1.10,2013-06-14 16:01:00,
2013-06-14 12:16:00,79.6,61.0,29.92,SW,228,0.0,10.0,54,0.00,,,0.00,weatherlink.com 1.10,2013-06-14 16:16:00,
2013-06-14 12:47:00,80.8,64.0,29.92,NW,306,0.0,8.0,56,0.00,,,0.00,weatherlink.com 1.10,2013-06-14 16:47:00,
2013-06-14 13:01:00,80.8,64.0,29.91,West,268,1.0,9.0,56,0.00,,,0.00,weatherlink.com 1.10,2013-06-14 17:01:00,
2013-06-14 13:16:00,81.3,63.0,29.92,ESE,119,4.0,11.0,54,0.00,,,0.00,weatherlink.com 1.10,2013-06-14 17:16:00,
2013-06-14 13:31:00,81.4,63.0,29.92,SE,130,4.0,9.0,53,0.00,,,0.00,weatherlink.com 1.10,2013-06-14 17:31:00,
2013-06-14 13:46:00,82.0,63.0,29.92,SE,136,4.0,8.0,53,0.00,,,0.00,weatherlink.com 1.10,2013-06-14 17:46:00,
2013-06-14 14:31:00,82.8,63.0,29.90,SE,139,0.0,6.0,52,0.00,,,0.00,weatherlink.com 1.10,2013-06-14 18:31:00,
2013-06-14 14:46:00,83.3,64.0,29.90,NW,313,3.0,10.0,52,0.00,,,0.00,weatherlink.com 1.10,2013-06-14 18:46:00,
2013-06-14 15:01:00,83.3,64.0,29.89,WNW,300,2.0,7.0,52,0.00,,,0.00,weatherlink.com 1.10,2013-06-14 19:01:00,
2013-06-14 15:31:00,83.5,63.0,29.89,SSE,147,3.0,10.0,51,0.00,,,0.00,weatherlink.com 1.10,2013-06-14 19:31:00,
2013-06-14 15:46:00,83.7,64.0,29.89,SSE,161,1.0,11.0,52,0.00,,,0.00,weatherlink.com 1.10,2013-06-14 19:46:00,
2013-06-14 16:01:00,84.3,63.0,29.89,SSE,148,3.0,7.0,49,0.00,,,0.00,weatherlink.com 1.10,2013-06-14 20:01:00,
2013-06-14 16:16:00,84.0,62.0,29.89,NNE,15,0.0,8.0,47,0.00,,,0.00,weatherlink.com 1.10,2013-06-14 20:16:00,
2013-06-14 16:31:00,84.1,62.0,29.89,SW,214,3.0,10.0,48,0.00,,,0.00,weatherlink.com 1.10,2013-06-14 20:31:00,
2013-06-14 16:46:00,83.9,62.0,29.89,WNW,291,2.0,9.0,47,0.00,,,0.00,weatherlink.com 1.10,2013-06-14 20:46:00,
2013-06-14 17:01:00,83.8,63.0,29.89,ENE,62,2.0,8.0,50,0.00,,,0.00,weatherlink.com 1.10,2013-06-14 21:01:00,
2013-06-14 17:16:00,83.9,62.0,29.89,ESE,118,1.0,8.0,48,0.00,,,0.00,weatherlink.com 1.10,2013-06-14 21:16:00,
2013-06-14 17:31:00,83.5,62.0,29.89,WNW,303,0.0,11.0,49,0.00,,,0.00,weatherlink.com 1.10,2013-06-14 21:31:00,
2013-06-14 17:46:00,83.4,63.0,29.88,SE,136,3.0,9.0,50,0.00,,,0.00,weatherlink.com 1.10,2013-06-14 21:46:00,
2013-06-14 18:01:00,83.1,63.0,29.87,NNW,348,0.0,11.0,50,0.00,,,0.00,weatherlink.com 1.10,2013-06-14 22:01:00,
2013-06-14 18:31:00,82.5,62.0,29.88,NW,308,7.0,10.0,50,0.00,,,0.00,weatherlink.com 1.10,2013-06-14 22:31:00,
2013-06-14 18:46:00,82.4,63.0,29.88,East,96,3.0,8.0,53,0.00,,,0.00,weatherlink.com 1.10,2013-06-14 22:46:00,
2013-06-14 19:01:00,81.9,64.0,29.89,NNW,330,0.0,9.0,54,0.00,,,0.00,weatherlink.com 1.10,2013-06-14 23:01:00,
2013-06-14 19:16:00,81.5,64.0,29.89,WSW,256,0.0,9.0,55,0.00,,,0.00,weatherlink.com 1.10,2013-06-14 23:16:00,
2013-06-14 19:31:00,81.2,64.0,29.89,NNW,341,1.0,6.0,56,0.00,,,0.00,weatherlink.com 1.10,2013-06-14 23:31:00,
2013-06-14 19:46:00,80.7,63.0,29.89,NNE,18,0.0,2.0,56,0.00,,,0.00,weatherlink.com 1.10,2013-06-14 23:46:00,
2013-06-14 20:01:00,79.9,63.0,29.89,WSW,252,0.0,3.0,56,0.00,,,0.00,weatherlink.com 1.10,2013-06-15 00:01:00,
2013-06-14 20:16:00,78.5,64.0,29.90,WSW,257,0.0,1.0,62,0.00,,,0.00,weatherlink.com 1.10,2013-06-15 00:16:00,
2013-06-14 20:31:00,76.5,64.0,29.91,WSW,257,0.0,1.0,66,0.00,,,0.00,weatherlink.com 1.10,2013-06-15 00:31:00,
2013-06-14 20:46:00,74.9,65.0,29.91,WSW,257,0.0,0.0,70,0.00,,,0.00,weatherlink.com 1.10,2013-06-15 00:46:00,
2013-06-14 21:01:00,73.4,64.0,29.92,NNW,340,0.0,0.0,72,0.00,,,0.00,weatherlink.com 1.10,2013-06-15 01:01:00,
2013-06-14 21:16:00,72.5,63.0,29.93,NNE,28,0.0,0.0,73,0.00,,,0.00,weatherlink.com 1.10,2013-06-15 01:16:00,
2013-06-14 21:31:00,71.9,63.0,29.93,NNE,28,0.0,0.0,74,0.00,,,0.00,weatherlink.com 1.10,2013-06-15 01:31:00,
2013-06-14 21:46:00,71.0,63.0,29.93,NNE,28,0.0,1.0,76,0.00,,,0.00,weatherlink.com 1.10,2013-06-15 01:46:00,
2013-06-14 22:01:00,70.1,63.0,29.93,NNE,28,0.0,0.0,78,0.00,,,0.00,weatherlink.com 1.10,2013-06-15 02:01:00,
2013-06-14 22:16:00,69.3,63.0,29.92,NNE,28,0.0,0.0,80,0.00,,,0.00,weatherlink.com 1.10,2013-06-15 02:16:00,
2013-06-14 22:31:00,68.1,63.0,29.94,NNE,28,0.0,0.0,83,0.00,,,0.00,weatherlink.com 1.10,2013-06-15 02:31:00,
2013-06-14 22:46:00,67.5,63.0,29.94,NNE,28,0.0,0.0,85,0.00,,,0.00,weatherlink.com 1.10,2013-06-15 02:46:00,
2013-06-14 23:16:00,66.4,63.0,29.95,NNE,28,0.0,1.0,88,0.00,,,0.00,weatherlink.com 1.10,2013-06-15 03:16:00,
2013-06-14 23:31:00,66.1,63.0,29.95,NNE,28,0.0,0.0,89,0.00,,,0.00,weatherlink.com 1.10,2013-06-15 03:31:00,